Time;durP1;ratioP1;P1;durP2;ratioP2;P2;SDS_P1;SDS_P2;PMS_P1;PMS_P2;Temp;Humidity;BMP_temperature;BMP_pressure;BME280_temperature;BME280_humidity;BME280_pressure;Samples;Min_cycle;Max_cycle;Signal;HPM_P1;HPM_P2
2023/03/22 00:01:45;;;;;;;;;5.67;5.33;;;;;;;;5059869;28;45516;-58
2023/03/22 00:04:11;;;;;;;;;8.00;8.00;;;;;;;;5074125;27;45529;-57
2023/03/22 00:06:36;;;;;;;;;6.00;6.00;;;;;;;;5060884;28;45466;-57
2023/03/22 00:09:01;;;;;;;;;6.00;5.00;;;;;;;;5062222;28;45470;-58
2023/03/22 00:11:26;;;;;;;;;4.67;4.67;;;;;;;;5068772;27;45437;-57
2023/03/22 00:13:52;;;;;;;;;6.33;6.33;;;;;;;;5052528;27;46732;-58
2023/03/22 00:16:18;;;;;;;;;6.67;6.67;;;;;;;;5074356;27;45545;-58
2023/03/22 00:18:43;;;;;;;;;6.00;6.00;;;;;;;;5073983;27;45553;-59
2023/03/22 00:21:13;;;;;;;;;6.00;5.00;;;;;;;;5067915;27;45608;-59
2023/03/22 00:23:38;;;;;;;;;6.33;6.00;;;;;;;;5055843;28;46101;-60
2023/03/22 00:26:05;;;;;;;;;10.00;6.67;;;;;;;;5072971;27;45528;-58
2023/03/22 00:28:31;;;;;;;;;5.00;5.00;;;;;;;;5061445;28;45478;-58
2023/03/22 00:30:58;;;;;;;;;5.67;5.00;;;;;;;;5073985;27;45517;-57
2023/03/22 00:33:24;;;;;;;;;3.00;3.00;;;;;;;;5077090;27;46098;-57
2023/03/22 00:35:50;;;;;;;;;5.00;5.00;;;;;;;;5072457;27;45482;-57
2023/03/22 00:38:15;;;;;;;;;5.33;3.67;;;;;;;;5072302;27;45565;-57
2023/03/22 00:40:41;;;;;;;;;3.00;3.00;;;;;;;;5069700;27;45464;-57
2023/03/22 00:43:06;;;;;;;;;3.67;3.67;;;;;;;;5067418;27;45489;-57
2023/03/22 00:45:31;;;;;;;;;4.00;4.00;;;;;;;;5074422;28;45673;-57
2023/03/22 00:47:57;;;;;;;;;3.00;3.00;;;;;;;;5072483;27;45491;-58
2023/03/22 00:50:22;;;;;;;;;2.00;2.00;;;;;;;;5072896;27;45466;-57
2023/03/22 00:52:47;;;;;;;;;3.00;3.00;;;;;;;;5075706;27;45865;-58
2023/03/22 00:55:12;;;;;;;;;2.00;2.00;;;;;;;;5076490;28;45478;-58
2023/03/22 00:57:37;;;;;;;;;3.33;2.67;;;;;;;;5073074;27;45710;-58
2023/03/22 01:00:09;;;;;;;;;2.00;2.00;;;;;;;;5070935;27;45469;-58
2023/03/22 01:02:35;;;;;;;;;3.00;3.00;;;;;;;;5076335;27;45533;-58
2023/03/22 01:05:01;;;;;;;;;2.00;2.00;;;;;;;;5076288;27;45469;-57
2023/03/22 01:07:26;;;;;;;;;2.00;2.00;;;;;;;;5042897;28;45461;-57
2023/03/22 01:09:52;;;;;;;;;3.00;3.00;;;;;;;;5059088;28;45474;-58
2023/03/22 01:12:18;;;;;;;;;2.00;2.00;;;;;;;;5038656;28;46567;-56
2023/03/22 01:14:43;;;;;;;;;4.00;2.67;;;;;;;;5055228;28;45570;-57
2023/03/22 01:17:09;;;;;;;;;1.67;1.67;;;;;;;;5054786;28;45494;-58
2023/03/22 01:19:34;;;;;;;;;4.33;2.00;;;;;;;;5055432;28;45547;-58
2023/03/22 01:21:59;;;;;;;;;4.00;3.00;;;;;;;;5055536;28;45507;-58
2023/03/22 01:24:25;;;;;;;;;2.67;2.67;;;;;;;;5055688;28;45521;-57
2023/03/22 01:26:50;;;;;;;;;2.00;0.33;;;;;;;;5037175;28;45423;-57
2023/03/22 01:29:16;;;;;;;;;3.00;1.00;;;;;;;;5053448;28;45435;-57
2023/03/22 01:31:41;;;;;;;;;1.67;1.67;;;;;;;;5054986;28;46048;-58
2023/03/22 01:34:06;;;;;;;;;0.33;0.33;;;;;;;;5055679;28;45501;-58
2023/03/22 01:36:31;;;;;;;;;1.00;1.00;;;;;;;;5056037;28;45439;-58
2023/03/22 01:38:58;;;;;;;;;1.33;1.33;;;;;;;;5055000;28;45482;-58
2023/03/22 01:41:23;;;;;;;;;2.00;2.00;;;;;;;;5054076;28;45560;-58
2023/03/22 01:44:07;;;;;;;;;3.00;1.00;;;;;;;;5051873;28;45516;-58
2023/03/22 01:46:32;;;;;;;;;2.00;2.00;;;;;;;;5036800;28;45544;-57
2023/03/22 01:48:58;;;;;;;;;3.00;2.00;;;;;;;;5054682;28;45642;-57
2023/03/22 01:51:24;;;;;;;;;2.67;2.67;;;;;;;;5055246;28;46128;-57
2023/03/22 01:53:53;;;;;;;;;1.67;1.67;;;;;;;;5055285;28;45444;-58
2023/03/22 01:56:19;;;;;;;;;2.33;1.33;;;;;;;;5055436;28;46123;-58
2023/03/22 01:58:45;;;;;;;;;4.67;3.00;;;;;;;;5054485;28;45435;-58
2023/03/22 02:01:10;;;;;;;;;1.33;0.67;;;;;;;;5054495;28;46211;-58
2023/03/22 02:03:39;;;;;;;;;2.67;2.00;;;;;;;;5055077;28;45432;-57
2023/03/22 02:06:04;;;;;;;;;1.00;1.00;;;;;;;;5055352;28;45566;-58
2023/03/22 02:08:31;;;;;;;;;1.00;1.00;;;;;;;;5054621;28;45493;-58
2023/03/22 02:10:56;;;;;;;;;2.00;2.00;;;;;;;;5054383;28;45794;-58
2023/03/22 02:13:21;;;;;;;;;2.33;1.33;;;;;;;;5054213;28;45474;-58
2023/03/22 02:15:51;;;;;;;;;2.75;2.00;;;;;;;;5053680;28;45587;-59
2023/03/22 02:18:34;;;;;;;;;2.00;2.00;;;;;;;;5036893;28;45536;-58
2023/03/22 02:21:12;;;;;;;;;2.00;1.00;;;;;;;;5054145;28;45651;-57
2023/03/22 02:23:43;;;;;;;;;1.00;1.00;;;;;;;;5054784;28;45584;-58
2023/03/22 02:26:11;;;;;;;;;3.00;3.00;;;;;;;;5054583;28;45488;-58
2023/03/22 02:28:45;;;;;;;;;1.00;1.00;;;;;;;;5040945;28;45435;-58
2023/03/22 02:31:28;;;;;;;;;1.33;1.33;;;;;;;;5053422;28;45474;-58
2023/03/22 02:34:20;;;;;;;;;2.00;2.00;;;;;;;;5049488;28;45545;-58
2023/03/22 02:36:48;;;;;;;;;2.00;2.00;;;;;;;;5020207;28;45598;-58
2023/03/22 02:39:22;;;;;;;;;4.00;2.00;;;;;;;;5053793;28;45577;-58
2023/03/22 02:41:47;;;;;;;;;5.67;2.00;;;;;;;;5052773;28;45448;-58
2023/03/22 02:44:31;;;;;;;;;3.25;2.75;;;;;;;;5054593;28;45555;-58
2023/03/22 02:46:59;;;;;;;;;2.00;2.00;;;;;;;;5054657;28;45586;-58
2023/03/22 02:49:46;;;;;;;;;3.00;2.00;;;;;;;;5054646;28;45438;-58
2023/03/22 02:52:32;;;;;;;;;2.00;2.00;;;;;;;;5053371;28;46137;-58
2023/03/22 02:55:20;;;;;;;;;4.00;4.00;;;;;;;;5053667;28;45578;-57
2023/03/22 02:57:49;;;;;;;;;3.67;2.33;;;;;;;;5053462;28;45413;-58
2023/03/22 03:00:17;;;;;;;;;3.67;2.00;;;;;;;;5036008;28;45460;-58
2023/03/22 03:02:51;;;;;;;;;2.00;2.00;;;;;;;;5053602;28;46114;-58
2023/03/22 03:05:18;;;;;;;;;3.00;3.00;;;;;;;;5051942;28;45595;-58
2023/03/22 03:07:45;;;;;;;;;3.67;2.33;;;;;;;;5054359;28;45510;-58
2023/03/22 03:10:12;;;;;;;;;2.33;2.33;;;;;;;;5052011;28;45620;-58
2023/03/22 03:12:37;;;;;;;;;2.00;2.00;;;;;;;;5053072;28;45425;-58
2023/03/22 03:15:12;;;;;;;;;2.67;2.00;;;;;;;;5054061;28;45474;-58
2023/03/22 03:17:47;;;;;;;;;3.00;2.00;;;;;;;;5054026;28;45551;-58
2023/03/22 03:20:12;;;;;;;;;2.00;2.00;;;;;;;;5053022;28;45509;-57
2023/03/22 03:22:49;;;;;;;;;2.00;2.00;;;;;;;;5053712;28;45423;-58
2023/03/22 03:25:24;;;;;;;;;3.67;3.67;;;;;;;;5040308;28;45486;-59
2023/03/22 03:27:58;;;;;;;;;3.67;3.67;;;;;;;;5048029;28;45502;-58
2023/03/22 03:30:27;;;;;;;;;4.00;3.00;;;;;;;;5048850;28;45566;-58
2023/03/22 03:32:54;;;;;;;;;3.67;2.00;;;;;;;;5051900;28;45569;-58
2023/03/22 03:35:21;;;;;;;;;2.00;2.00;;;;;;;;5052751;28;45491;-59
2023/03/22 03:37:52;;;;;;;;;2.00;2.00;;;;;;;;5053075;28;45494;-58
2023/03/22 03:40:25;;;;;;;;;3.00;2.67;;;;;;;;5053542;28;45503;-58
2023/03/22 03:42:51;;;;;;;;;1.67;1.67;;;;;;;;5035434;28;46962;-58
2023/03/22 03:45:17;;;;;;;;;0.00;0.00;;;;;;;;5053498;28;45461;-59
2023/03/22 03:47:44;;;;;;;;;3.33;2.00;;;;;;;;5053537;28;45594;-58
2023/03/22 03:50:11;;;;;;;;;4.00;2.00;;;;;;;;5052665;28;45562;-58
2023/03/22 03:52:36;;;;;;;;;4.00;2.33;;;;;;;;5053483;28;45860;-58
2023/03/22 03:55:01;;;;;;;;;1.67;1.67;;;;;;;;5052965;28;45577;-58
2023/03/22 03:57:26;;;;;;;;;3.00;3.00;;;;;;;;5052155;28;45537;-59
2023/03/22 03:59:52;;;;;;;;;4.00;2.00;;;;;;;;5053224;28;45665;-59
2023/03/22 04:02:17;;;;;;;;;3.00;1.67;;;;;;;;5035463;28;45582;-58
2023/03/22 04:04:42;;;;;;;;;2.00;1.00;;;;;;;;5054174;28;45399;-58
2023/03/22 04:07:07;;;;;;;;;2.00;0.67;;;;;;;;5056972;28;45482;-58
2023/03/22 04:09:34;;;;;;;;;1.00;1.00;;;;;;;;5056184;28;45547;-59
2023/03/22 04:11:59;;;;;;;;;2.00;2.00;;;;;;;;5056759;28;46100;-59
2023/03/22 04:14:25;;;;;;;;;2.00;2.00;;;;;;;;5056182;28;45522;-59
2023/03/22 04:16:50;;;;;;;;;3.00;2.00;;;;;;;;5057118;28;45570;-58
2023/03/22 04:19:15;;;;;;;;;2.67;1.67;;;;;;;;5055921;28;45478;-57
2023/03/22 04:21:40;;;;;;;;;1.00;1.00;;;;;;;;5038583;28;45964;-59
2023/03/22 04:24:06;;;;;;;;;2.00;2.00;;;;;;;;5056845;28;45522;-58
2023/03/22 04:26:31;;;;;;;;;3.00;3.00;;;;;;;;5056994;28;45400;-58
2023/03/22 04:28:57;;;;;;;;;2.00;2.00;;;;;;;;5055869;28;45443;-59
2023/03/22 04:31:23;;;;;;;;;1.00;1.00;;;;;;;;5056261;28;45537;-59
2023/03/22 04:33:53;;;;;;;;;1.33;1.33;;;;;;;;5056143;28;45465;-59
2023/03/22 04:36:19;;;;;;;;;1.00;1.00;;;;;;;;5056165;28;45459;-59
2023/03/22 04:38:44;;;;;;;;;1.00;1.00;;;;;;;;5054630;28;45716;-59
2023/03/22 04:41:10;;;;;;;;;4.33;2.00;;;;;;;;5056627;28;45510;-58
2023/03/22 04:43:38;;;;;;;;;0.33;0.33;;;;;;;;5056432;28;45472;-59
2023/03/22 04:46:03;;;;;;;;;2.33;1.00;;;;;;;;5056043;28;45510;-58
2023/03/22 04:48:28;;;;;;;;;1.00;1.00;;;;;;;;5055750;28;45637;-57
2023/03/22 04:50:54;;;;;;;;;3.67;2.00;;;;;;;;5037933;28;48030;-59
2023/03/22 04:53:25;;;;;;;;;4.00;1.00;;;;;;;;5056107;28;45466;-59
2023/03/22 04:55:51;;;;;;;;;1.00;1.00;;;;;;;;5056422;28;45816;-59
2023/03/22 04:58:20;;;;;;;;;2.00;2.00;;;;;;;;5054105;28;45574;-58
2023/03/22 05:00:46;;;;;;;;;2.00;1.00;;;;;;;;5054917;28;45489;-59
2023/03/22 05:03:12;;;;;;;;;1.00;1.00;;;;;;;;5056026;28;45491;-58
2023/03/22 05:05:38;;;;;;;;;1.00;1.00;;;;;;;;5054978;28;45644;-58
2023/03/22 05:08:05;;;;;;;;;2.33;1.00;;;;;;;;5055287;28;45446;-58
2023/03/22 05:10:30;;;;;;;;;3.00;2.33;;;;;;;;5055272;28;45971;-59
2023/03/22 05:12:57;;;;;;;;;2.00;2.00;;;;;;;;5055734;28;45486;-59
2023/03/22 05:15:22;;;;;;;;;3.33;2.00;;;;;;;;5054941;28;45452;-58
2023/03/22 05:17:48;;;;;;;;;1.00;1.00;;;;;;;;5055733;28;45412;-59
2023/03/22 05:20:13;;;;;;;;;1.00;1.00;;;;;;;;5054895;28;45649;-58
2023/03/22 05:22:39;;;;;;;;;2.00;2.00;;;;;;;;5055856;28;45420;-59
2023/03/22 05:25:05;;;;;;;;;1.67;1.00;;;;;;;;5055631;28;45462;-59
2023/03/22 05:27:30;;;;;;;;;1.00;1.00;;;;;;;;5037034;28;45803;-57
2023/03/22 05:29:55;;;;;;;;;1.00;1.00;;;;;;;;5054837;28;45426;-58
2023/03/22 05:32:24;;;;;;;;;0.00;0.00;;;;;;;;5055530;28;45537;-58
2023/03/22 05:34:49;;;;;;;;;2.00;2.00;;;;;;;;5055043;28;45482;-58
2023/03/22 05:37:15;;;;;;;;;2.00;2.00;;;;;;;;5055184;28;45609;-58
2023/03/22 05:39:40;;;;;;;;;3.00;3.00;;;;;;;;5054795;28;45517;-59
2023/03/22 05:42:06;;;;;;;;;2.00;2.00;;;;;;;;5055157;28;45427;-59
2023/03/22 05:44:31;;;;;;;;;3.00;2.00;;;;;;;;5037607;28;45499;-58
2023/03/22 05:46:56;;;;;;;;;5.00;3.67;;;;;;;;5055289;28;45536;-59
2023/03/22 05:49:21;;;;;;;;;3.00;2.00;;;;;;;;5054227;28;45582;-59
2023/03/22 05:51:46;;;;;;;;;6.67;4.00;;;;;;;;5055174;28;45510;-58
2023/03/22 05:54:12;;;;;;;;;5.00;4.00;;;;;;;;5055341;28;45384;-59
2023/03/22 05:56:38;;;;;;;;;2.67;2.00;;;;;;;;5055746;28;45404;-59
2023/03/22 05:59:04;;;;;;;;;5.00;3.33;;;;;;;;5054024;28;45974;-59
2023/03/22 06:01:29;;;;;;;;;3.67;2.00;;;;;;;;5036950;28;45448;-58
2023/03/22 06:03:54;;;;;;;;;6.00;5.00;;;;;;;;5054596;28;45654;-59
2023/03/22 06:06:19;;;;;;;;;5.33;4.33;;;;;;;;5054070;28;45634;-58
2023/03/22 06:08:45;;;;;;;;;2.00;2.00;;;;;;;;5053821;28;45767;-58
2023/03/22 06:11:10;;;;;;;;;5.67;4.00;;;;;;;;5054642;28;45510;-58
2023/03/22 06:13:36;;;;;;;;;6.33;5.33;;;;;;;;5054958;28;45464;-59
2023/03/22 06:16:02;;;;;;;;;5.67;5.33;;;;;;;;5054834;28;45603;-58
2023/03/22 06:18:28;;;;;;;;;4.00;4.00;;;;;;;;5052719;28;45585;-58
2023/03/22 06:20:53;;;;;;;;;4.00;4.00;;;;;;;;5054839;28;45530;-58
2023/03/22 06:23:19;;;;;;;;;5.00;4.00;;;;;;;;5054886;28;45461;-59
2023/03/22 06:25:44;;;;;;;;;6.00;4.00;;;;;;;;5054242;28;45589;-59
2023/03/22 06:28:09;;;;;;;;;6.67;5.33;;;;;;;;5036041;28;45559;-59
2023/03/22 06:30:34;;;;;;;;;4.00;3.33;;;;;;;;5054601;28;45548;-58
2023/03/22 06:33:03;;;;;;;;;6.00;5.67;;;;;;;;5053856;28;45639;-59
2023/03/22 06:35:29;;;;;;;;;4.33;3.33;;;;;;;;5054071;28;45534;-59
2023/03/22 06:37:54;;;;;;;;;5.33;3.67;;;;;;;;5047811;28;45614;-57
2023/03/22 06:40:19;;;;;;;;;4.67;4.67;;;;;;;;5052972;28;45471;-59
2023/03/22 06:42:44;;;;;;;;;2.67;2.67;;;;;;;;5053871;28;45538;-58
2023/03/22 06:45:13;;;;;;;;;6.67;5.67;;;;;;;;5053175;28;45407;-58
2023/03/22 06:47:38;;;;;;;;;4.00;3.33;;;;;;;;5053517;28;46197;-59
2023/03/22 06:50:04;;;;;;;;;2.33;2.33;;;;;;;;5053740;28;45585;-59
2023/03/22 06:52:29;;;;;;;;;5.33;4.00;;;;;;;;5053715;28;45613;-58
2023/03/22 06:54:55;;;;;;;;;6.00;4.00;;;;;;;;5054106;28;45467;-57
2023/03/22 06:57:20;;;;;;;;;3.00;3.00;;;;;;;;5053279;28;45483;-58
2023/03/22 06:59:46;;;;;;;;;5.67;4.33;;;;;;;;5053356;28;45407;-58
2023/03/22 07:02:12;;;;;;;;;5.00;5.00;;;;;;;;5053172;28;45610;-58
2023/03/22 07:04:37;;;;;;;;;3.00;3.00;;;;;;;;5053499;28;45554;-58
2023/03/22 07:07:02;;;;;;;;;4.33;4.33;;;;;;;;5033761;28;47174;-58
2023/03/22 07:09:27;;;;;;;;;4.00;4.00;;;;;;;;5053976;28;45542;-58
2023/03/22 07:11:53;;;;;;;;;4.67;4.00;;;;;;;;5054232;28;45537;-58
2023/03/22 07:14:18;;;;;;;;;5.33;5.33;;;;;;;;5053402;28;45475;-57
2023/03/22 07:16:43;;;;;;;;;6.00;5.33;;;;;;;;5053127;28;45674;-58
2023/03/22 07:19:08;;;;;;;;;4.00;4.00;;;;;;;;5050723;28;45372;-58
2023/03/22 07:21:33;;;;;;;;;5.00;5.00;;;;;;;;5053828;28;45460;-58
2023/03/22 07:23:59;;;;;;;;;6.33;4.67;;;;;;;;5053812;28;45520;-58
2023/03/22 07:26:25;;;;;;;;;7.67;6.00;;;;;;;;5053387;28;45665;-58
2023/03/22 07:28:50;;;;;;;;;4.00;4.00;;;;;;;;5052657;28;46599;-57
2023/03/22 07:31:15;;;;;;;;;6.00;4.67;;;;;;;;5053250;28;45554;-59
2023/03/22 07:33:41;;;;;;;;;6.33;5.00;;;;;;;;5049072;28;45415;-59
2023/03/22 07:36:07;;;;;;;;;4.00;4.00;;;;;;;;5045276;28;46069;-59
2023/03/22 07:38:32;;;;;;;;;4.33;4.33;;;;;;;;5052409;28;45416;-60
2023/03/22 07:40:57;;;;;;;;;3.00;3.00;;;;;;;;5052091;28;46036;-59
2023/03/22 07:43:22;;;;;;;;;7.00;4.33;;;;;;;;5053540;28;45511;-60
2023/03/22 07:45:49;;;;;;;;;4.33;4.33;;;;;;;;5051754;28;45661;-59
2023/03/22 07:48:14;;;;;;;;;7.00;7.00;;;;;;;;5052651;28;45522;-59
2023/03/22 07:50:40;;;;;;;;;6.00;6.00;;;;;;;;5034587;28;45498;-59
2023/03/22 07:53:06;;;;;;;;;6.00;6.00;;;;;;;;5051426;28;45589;-59
2023/03/22 07:55:31;;;;;;;;;7.00;5.67;;;;;;;;5052477;28;46013;-60
2023/03/22 07:57:56;;;;;;;;;3.33;2.00;;;;;;;;5052572;28;45576;-59
2023/03/22 08:00:21;;;;;;;;;6.67;5.67;;;;;;;;5052559;28;45392;-59
2023/03/22 08:02:47;;;;;;;;;6.00;6.00;;;;;;;;5052373;28;45518;-59
2023/03/22 08:05:12;;;;;;;;;2.67;2.33;;;;;;;;5049219;28;46079;-59
2023/03/22 08:07:37;;;;;;;;;6.00;4.00;;;;;;;;5051782;28;45611;-59
2023/03/22 08:10:03;;;;;;;;;4.67;4.67;;;;;;;;5052342;28;45424;-60
2023/03/22 08:12:28;;;;;;;;;5.00;5.00;;;;;;;;5051370;28;45593;-59
2023/03/22 08:14:53;;;;;;;;;5.67;4.33;;;;;;;;5051666;28;46517;-59
2023/03/22 08:17:19;;;;;;;;;4.33;4.33;;;;;;;;5051840;28;45478;-60
2023/03/22 08:19:44;;;;;;;;;4.33;4.33;;;;;;;;5034206;28;45518;-59
2023/03/22 08:22:10;;;;;;;;;4.00;4.00;;;;;;;;5052468;28;45548;-59
2023/03/22 08:24:36;;;;;;;;;7.67;7.67;;;;;;;;5052160;28;45478;-60
2023/03/22 08:27:01;;;;;;;;;4.00;4.00;;;;;;;;5033074;28;46067;-59
2023/03/22 08:29:26;;;;;;;;;3.67;3.67;;;;;;;;5052116;28;45727;-59
2023/03/22 08:31:51;;;;;;;;;5.00;3.00;;;;;;;;5051894;28;45459;-59
2023/03/22 08:34:17;;;;;;;;;4.67;4.67;;;;;;;;5052304;28;46015;-59
2023/03/22 08:36:42;;;;;;;;;4.00;4.00;;;;;;;;5052041;28;45515;-60
2023/03/22 08:39:08;;;;;;;;;3.33;2.67;;;;;;;;5052368;28;45539;-60
2023/03/22 08:41:34;;;;;;;;;6.67;5.00;;;;;;;;5052234;28;45510;-60
2023/03/22 08:43:59;;;;;;;;;3.00;3.00;;;;;;;;5051941;28;45945;-60
2023/03/22 08:46:25;;;;;;;;;4.00;4.00;;;;;;;;5052173;28;45433;-59
2023/03/22 08:48:50;;;;;;;;;7.00;5.00;;;;;;;;5052112;28;45497;-59
2023/03/22 08:51:16;;;;;;;;;3.33;3.33;;;;;;;;5054957;28;45535;-59
2023/03/22 08:53:42;;;;;;;;;5.33;5.00;;;;;;;;5055436;28;45754;-59
2023/03/22 08:56:07;;;;;;;;;7.67;4.67;;;;;;;;5055370;28;45464;-59
2023/03/22 08:58:32;;;;;;;;;3.67;3.67;;;;;;;;5036804;28;45611;-59
2023/03/22 09:00:57;;;;;;;;;4.00;4.00;;;;;;;;5055741;28;45768;-59
2023/03/22 09:03:23;;;;;;;;;3.67;3.67;;;;;;;;5054972;28;45586;-60
2023/03/22 09:05:49;;;;;;;;;6.00;4.00;;;;;;;;5037136;28;45587;-60
2023/03/22 09:08:14;;;;;;;;;4.00;4.00;;;;;;;;5055633;28;45483;-60
2023/03/22 09:10:39;;;;;;;;;6.00;4.00;;;;;;;;5036986;28;45587;-60
2023/03/22 09:13:04;;;;;;;;;6.67;5.00;;;;;;;;5055231;28;45433;-59
2023/03/22 09:15:30;;;;;;;;;5.33;5.33;;;;;;;;5036763;28;45631;-60
2023/03/22 09:17:55;;;;;;;;;4.00;3.33;;;;;;;;5055379;28;45479;-60
2023/03/22 09:20:24;;;;;;;;;4.00;4.00;;;;;;;;5055316;28;45638;-60
2023/03/22 09:22:49;;;;;;;;;3.67;3.67;;;;;;;;5052595;28;46146;-60
2023/03/22 09:25:15;;;;;;;;;3.33;3.33;;;;;;;;5034920;28;45689;-59
2023/03/22 09:27:40;;;;;;;;;3.67;3.33;;;;;;;;5054756;28;45419;-59
2023/03/22 09:30:05;;;;;;;;;9.00;4.33;;;;;;;;5054534;28;45579;-60
2023/03/22 09:32:31;;;;;;;;;6.00;3.00;;;;;;;;5054658;28;45555;-59
2023/03/22 09:34:56;;;;;;;;;5.00;5.00;;;;;;;;5054858;28;45437;-59
2023/03/22 09:37:21;;;;;;;;;7.33;4.00;;;;;;;;5054968;28;45485;-59
2023/03/22 09:39:48;;;;;;;;;5.00;5.00;;;;;;;;5054908;28;45478;-59
2023/03/22 09:42:31;;;;;;;;;4.00;4.00;;;;;;;;5054975;28;45531;-60
2023/03/22 09:44:58;;;;;;;;;8.33;8.33;;;;;;;;5054437;28;45423;-59
2023/03/22 09:47:33;;;;;;;;;6.00;5.67;;;;;;;;5054877;28;45654;-59
2023/03/22 09:50:12;;;;;;;;;10.00;7.67;;;;;;;;5054408;28;45606;-60
2023/03/22 09:52:38;;;;;;;;;6.67;6.00;;;;;;;;5051695;28;45525;-59
2023/03/22 09:55:05;;;;;;;;;5.67;4.67;;;;;;;;5050176;28;45490;-59
2023/03/22 09:57:32;;;;;;;;;6.00;5.00;;;;;;;;5054672;28;45557;-60
2023/03/22 09:59:57;;;;;;;;;5.00;5.00;;;;;;;;5054470;28;46173;-59
2023/03/22 10:02:41;;;;;;;;;10.67;7.67;;;;;;;;5053398;28;46012;-60
2023/03/22 10:05:13;;;;;;;;;9.00;7.00;;;;;;;;5054420;28;45490;-59
2023/03/22 10:07:38;;;;;;;;;5.33;5.33;;;;;;;;5054165;28;45469;-59
2023/03/22 10:10:16;;;;;;;;;6.67;6.67;;;;;;;;5054530;28;45610;-59
2023/03/22 10:12:56;;;;;;;;;6.00;6.00;;;;;;;;5054224;28;45542;-60
2023/03/22 10:15:34;;;;;;;;;7.67;7.67;;;;;;;;5054081;28;45607;-60
2023/03/22 10:18:02;;;;;;;;;4.67;4.67;;;;;;;;5041188;28;45624;-60
2023/03/22 10:20:30;;;;;;;;;9.00;6.67;;;;;;;;5052866;28;45507;-60
2023/03/22 10:22:58;;;;;;;;;7.67;7.67;;;;;;;;5054001;28;46413;-60
2023/03/22 10:25:29;;;;;;;;;8.67;6.33;;;;;;;;5053859;28;45561;-60
2023/03/22 10:27:55;;;;;;;;;6.67;5.67;;;;;;;;5054062;28;45450;-60
2023/03/22 10:30:29;;;;;;;;;9.33;6.00;;;;;;;;5054048;28;45436;-60
2023/03/22 10:32:58;;;;;;;;;9.00;9.00;;;;;;;;5053638;28;45470;-60
2023/03/22 10:35:24;;;;;;;;;5.00;5.00;;;;;;;;5053647;28;45597;-59
2023/03/22 10:37:50;;;;;;;;;10.33;10.33;;;;;;;;5054108;28;45526;-60
2023/03/22 10:40:20;;;;;;;;;9.33;5.67;;;;;;;;5035800;28;45560;-60
2023/03/22 10:42:51;;;;;;;;;7.33;5.33;;;;;;;;5053683;28;45446;-59
2023/03/22 10:45:16;;;;;;;;;8.33;6.00;;;;;;;;5053466;28;45477;-60
2023/03/22 10:47:44;;;;;;;;;7.00;7.00;;;;;;;;5053969;28;45496;-60
2023/03/22 10:50:19;;;;;;;;;5.33;4.00;;;;;;;;5053652;28;46088;-60
2023/03/22 10:53:04;;;;;;;;;6.00;5.00;;;;;;;;5051597;28;46137;-59
2023/03/22 10:55:29;;;;;;;;;10.00;8.67;;;;;;;;5053602;28;45495;-60
2023/03/22 10:58:01;;;;;;;;;7.00;7.00;;;;;;;;5053514;28;45487;-59
2023/03/22 11:00:27;;;;;;;;;8.33;6.67;;;;;;;;5053238;28;45581;-59
2023/03/22 11:02:57;;;;;;;;;12.00;6.67;;;;;;;;5053294;28;46307;-60
2023/03/22 11:05:27;;;;;;;;;13.00;9.00;;;;;;;;5051347;28;45525;-60
2023/03/22 11:07:52;;;;;;;;;7.00;6.67;;;;;;;;5040816;28;45441;-59
2023/03/22 11:10:20;;;;;;;;;10.00;7.33;;;;;;;;5052057;28;45439;-59
2023/03/22 11:13:06;;;;;;;;;12.33;9.33;;;;;;;;5053156;28;46002;-60
2023/03/22 11:15:32;;;;;;;;;9.67;9.67;;;;;;;;5041423;28;45447;-60
2023/03/22 11:18:10;;;;;;;;;8.00;5.67;;;;;;;;5052954;28;45423;-59
2023/03/22 11:20:38;;;;;;;;;6.00;6.00;;;;;;;;5051670;28;45515;-59
2023/03/22 11:23:05;;;;;;;;;5.00;5.00;;;;;;;;5052509;28;45534;-59
2023/03/22 11:25:33;;;;;;;;;8.00;8.00;;;;;;;;5052932;28;45494;-59
2023/03/22 11:28:17;;;;;;;;;7.67;6.67;;;;;;;;5052945;28;45578;-59
2023/03/22 11:30:57;;;;;;;;;8.00;6.00;;;;;;;;5052874;28;45482;-58
2023/03/22 11:33:24;;;;;;;;;8.33;8.33;;;;;;;;5052532;28;45546;-59
2023/03/22 11:35:54;;;;;;;;;9.00;9.00;;;;;;;;5052832;28;45478;-59
2023/03/22 11:38:28;;;;;;;;;7.67;6.33;;;;;;;;5053115;28;45509;-58
2023/03/22 11:40:59;;;;;;;;;6.67;6.67;;;;;;;;5033980;28;45525;-59
2023/03/22 11:43:33;;;;;;;;;11.67;8.33;;;;;;;;5053098;28;45558;-58
2023/03/22 11:45:59;;;;;;;;;7.33;6.00;;;;;;;;5052308;28;45483;-58
2023/03/22 11:48:28;;;;;;;;;10.00;10.00;;;;;;;;5052324;28;45568;-59
2023/03/22 11:50:54;;;;;;;;;10.33;6.67;;;;;;;;5053212;28;45758;-59
2023/03/22 11:53:21;;;;;;;;;6.33;6.33;;;;;;;;5053064;28;46294;-58
2023/03/22 11:55:48;;;;;;;;;7.00;7.00;;;;;;;;5052946;28;45474;-58
2023/03/22 11:58:39;;;;;;;;;6.00;6.00;;;;;;;;5053032;28;45427;-59
2023/03/22 12:01:05;;;;;;;;;5.33;5.33;;;;;;;;5027014;28;45659;-60
2023/03/22 12:03:35;;;;;;;;;10.67;9.33;;;;;;;;5050586;28;45780;-60
2023/03/22 12:06:06;;;;;;;;;6.00;6.00;;;;;;;;5039573;28;45503;-60
2023/03/22 12:08:38;;;;;;;;;32.00;25.67;;;;;;;;5053345;28;45475;-60
2023/03/22 12:11:07;;;;;;;;;11.00;11.00;;;;;;;;5051640;28;45510;-61
2023/03/22 12:13:52;;;;;;;;;13.00;11.67;;;;;;;;5050137;28;46254;-59
2023/03/22 12:16:21;;;;;;;;;7.00;7.00;;;;;;;;5020973;28;45623;-59
2023/03/22 12:18:53;;;;;;;;;6.00;6.00;;;;;;;;5053885;28;45530;-59
2023/03/22 12:21:20;;;;;;;;;4.67;4.33;;;;;;;;5049286;28;45511;-59
2023/03/22 12:23:46;;;;;;;;;26.67;22.00;;;;;;;;5047926;28;46471;-59
2023/03/22 12:26:12;;;;;;;;;5.33;5.33;;;;;;;;5050929;28;45518;-59
2023/03/22 12:28:48;;;;;;;;;6.00;6.00;;;;;;;;5056479;28;45872;-59
2023/03/22 12:31:17;;;;;;;;;9.67;5.33;;;;;;;;5056196;28;45377;-59
2023/03/22 12:33:45;;;;;;;;;6.33;5.00;;;;;;;;5042155;28;46339;-59
2023/03/22 12:36:15;;;;;;;;;7.67;6.00;;;;;;;;5037893;28;45956;-59
2023/03/22 12:38:47;;;;;;;;;7.33;6.00;;;;;;;;5056042;28;45566;-59
2023/03/22 12:41:15;;;;;;;;;14.00;9.33;;;;;;;;5056118;28;45502;-59
2023/03/22 12:43:47;;;;;;;;;12.00;11.00;;;;;;;;5051095;28;45557;-60
2023/03/22 12:46:24;;;;;;;;;10.67;8.00;;;;;;;;5055436;28;45428;-59
2023/03/22 12:49:08;;;;;;;;;8.00;6.33;;;;;;;;5054631;28;45479;-59
2023/03/22 12:51:35;;;;;;;;;8.00;6.00;;;;;;;;5047937;28;45637;-60
2023/03/22 12:54:01;;;;;;;;;9.00;6.00;;;;;;;;5055294;28;45541;-59
2023/03/22 12:56:30;;;;;;;;;8.67;7.00;;;;;;;;5055620;28;45493;-60
2023/03/22 12:59:02;;;;;;;;;7.67;7.33;;;;;;;;5054622;28;46139;-59
2023/03/22 13:01:32;;;;;;;;;7.67;7.33;;;;;;;;5037401;28;45614;-60
2023/03/22 13:03:58;;;;;;;;;4.67;4.67;;;;;;;;5055095;28;45487;-59
2023/03/22 13:06:42;;;;;;;;;6.00;6.00;;;;;;;;5055066;28;45423;-59
2023/03/22 13:09:08;;;;;;;;;6.00;5.00;;;;;;;;5054902;28;45575;-59
2023/03/22 13:11:33;;;;;;;;;6.00;6.00;;;;;;;;5055328;28;45542;-59
2023/03/22 13:13:58;;;;;;;;;7.00;5.00;;;;;;;;5054028;28;46383;-59
2023/03/22 13:16:42;;;;;;;;;4.00;3.67;;;;;;;;5055343;28;45709;-59
2023/03/22 13:19:37;;;;;;;;;7.00;5.00;;;;;;;;5051617;28;45544;-59
2023/03/22 13:22:16;;;;;;;;;4.00;4.00;;;;;;;;5032997;28;45579;-59
2023/03/22 13:24:58;;;;;;;;;5.00;5.00;;;;;;;;5052924;28;45987;-60
2023/03/22 13:27:34;;;;;;;;;5.33;5.33;;;;;;;;5047320;28;45529;-59
2023/03/22 13:30:04;;;;;;;;;5.33;5.33;;;;;;;;5054790;28;45517;-59
2023/03/22 13:32:32;;;;;;;;;5.00;5.00;;;;;;;;5054224;28;45478;-60
2023/03/22 13:34:58;;;;;;;;;5.00;5.00;;;;;;;;5053008;28;46226;-61
2023/03/22 13:37:33;;;;;;;;;5.00;4.00;;;;;;;;5053626;28;45625;-59
2023/03/22 13:40:00;;;;;;;;;6.67;6.67;;;;;;;;5054600;28;45565;-59
2023/03/22 13:42:33;;;;;;;;;6.67;5.67;;;;;;;;5054898;28;45646;-59
2023/03/22 13:45:02;;;;;;;;;7.33;5.33;;;;;;;;5054456;28;46413;-60
2023/03/22 13:47:33;;;;;;;;;8.00;6.67;;;;;;;;5036413;28;45527;-59
2023/03/22 13:50:18;;;;;;;;;7.00;5.33;;;;;;;;5054413;28;45474;-59
2023/03/22 13:52:58;;;;;;;;;7.33;7.00;;;;;;;;5043335;28;45634;-59
2023/03/22 13:55:36;;;;;;;;;9.00;8.67;;;;;;;;5054225;28;45496;-59
2023/03/22 13:58:03;;;;;;;;;10.00;6.00;;;;;;;;5054133;28;45416;-59
2023/03/22 14:00:29;;;;;;;;;9.00;7.67;;;;;;;;5054291;28;45435;-59
2023/03/22 14:02:55;;;;;;;;;6.00;6.00;;;;;;;;5054205;28;45574;-59
2023/03/22 14:05:22;;;;;;;;;8.00;7.00;;;;;;;;5053176;28;45997;-59
2023/03/22 14:07:55;;;;;;;;;8.00;8.00;;;;;;;;5054067;28;45498;-59
2023/03/22 14:10:25;;;;;;;;;7.00;7.00;;;;;;;;5054222;28;45459;-59
2023/03/22 14:12:56;;;;;;;;;6.67;6.67;;;;;;;;5040644;28;45476;-59
2023/03/22 14:15:30;;;;;;;;;5.67;5.67;;;;;;;;5053733;28;46949;-59
2023/03/22 14:17:55;;;;;;;;;7.33;6.67;;;;;;;;5054269;28;45430;-59
2023/03/22 14:20:21;;;;;;;;;13.67;9.33;;;;;;;;5054292;28;45543;-59
2023/03/22 14:22:56;;;;;;;;;12.00;11.67;;;;;;;;5053958;28;45541;-59
2023/03/22 14:25:25;;;;;;;;;5.00;5.00;;;;;;;;5053698;28;45590;-59
2023/03/22 14:27:50;;;;;;;;;10.33;8.00;;;;;;;;5053706;28;45526;-59
2023/03/22 14:30:35;;;;;;;;;10.67;10.67;;;;;;;;5053537;28;45459;-59
2023/03/22 14:33:05;;;;;;;;;8.00;8.00;;;;;;;;5053653;28;45527;-59
2023/03/22 14:35:33;;;;;;;;;7.00;6.00;;;;;;;;5049823;28;46324;-59
2023/03/22 14:38:02;;;;;;;;;11.67;10.00;;;;;;;;5028180;28;45522;-59
2023/03/22 14:40:32;;;;;;;;;8.33;7.67;;;;;;;;5053538;28;45482;-59
2023/03/22 14:43:17;;;;;;;;;7.33;6.00;;;;;;;;5053753;28;45566;-59
2023/03/22 14:45:43;;;;;;;;;9.00;8.00;;;;;;;;5042343;28;46140;-59
2023/03/22 14:48:19;;;;;;;;;13.67;12.33;;;;;;;;5053291;28;45545;-60